Evendale, Pennsylvania
Current Conditions -  °F | °C
As of 7:53 AM on Friday 24 Oct 2014 (Local Time) from KSEG Reporting Station
Clear Clear  
Wind Chill: 52°   Ceiling: Unl
Heat Index: 52°   Visibility: 10mi
Dew Point: 42°   Wind: 3mph
Humidity: 69%   Direction: 310°NW
Pressure: 29.94"   Gusts: NA
Location:  40.6987°N, 77.1242°W
Report Text: KSEG 241153Z AUTO 31003KT 10SM CLR 11/06 A2994 RMK AO2 SLP140 T01110056 10139 20106 51003
Loading
Personal Weather Stations






























Interactive Weather Map
Tropical Storm Tracking
New forecast layout! Learn more

10-Day Weather Forecast

Advertisements
Track Severe Weather on mobile